createdAt,value
2023-04-02T00:00:32.494Z,0.00
2023-04-02T00:01:32.422Z,0.00
2023-04-02T00:02:32.696Z,0.00
2023-04-02T00:03:32.448Z,0.00
2023-04-02T00:04:32.397Z,0.00
2023-04-02T00:05:32.510Z,0.00
2023-04-02T00:06:32.382Z,0.00
2023-04-02T00:07:32.364Z,0.00
2023-04-02T00:08:32.377Z,0.00
2023-04-02T00:09:32.360Z,0.00
2023-04-02T00:10:33.381Z,0.00
2023-04-02T00:11:32.340Z,0.00
2023-04-02T00:12:32.335Z,0.00
2023-04-02T00:13:32.327Z,0.00
2023-04-02T00:14:32.318Z,0.00
2023-04-02T00:15:32.653Z,0.00
2023-04-02T00:16:32.374Z,0.00
2023-04-02T00:17:32.291Z,0.00
2023-04-02T00:18:32.310Z,0.00
2023-04-02T00:19:32.271Z,0.00
2023-04-02T00:20:32.305Z,0.00
2023-04-02T00:21:32.260Z,0.00
2023-04-02T00:22:32.259Z,0.00
2023-04-02T00:23:32.260Z,0.00
2023-04-02T00:24:32.278Z,0.00
2023-04-02T00:25:32.379Z,0.00
2023-04-02T00:26:32.262Z,0.00
2023-04-02T00:27:32.267Z,0.00
2023-04-02T00:28:32.222Z,0.00
2023-04-02T00:29:32.194Z,0.00
2023-04-02T00:30:32.266Z,0.00
2023-04-02T00:31:32.210Z,0.00
2023-04-02T00:32:32.193Z,0.00
2023-04-02T00:33:32.160Z,0.00
2023-04-02T00:34:32.168Z,0.00
2023-04-02T00:35:32.209Z,0.00
2023-04-02T00:36:32.200Z,0.00
2023-04-02T00:37:32.144Z,0.00
2023-04-02T00:38:32.150Z,0.00
2023-04-02T00:39:32.149Z,0.00
2023-04-02T00:40:32.158Z,0.00
2023-04-02T00:41:32.179Z,0.00
2023-04-02T00:42:32.106Z,0.00
2023-04-02T00:43:32.103Z,0.00
2023-04-02T00:44:32.086Z,0.00
2023-04-02T00:45:32.217Z,0.00
2023-04-02T00:46:32.238Z,0.00
2023-04-02T00:47:32.108Z,0.00
2023-04-02T00:48:32.066Z,0.00
2023-04-02T00:49:32.061Z,0.00
2023-04-02T00:50:32.042Z,0.00
2023-04-02T00:51:32.115Z,0.00
2023-04-02T00:52:32.044Z,0.00
2023-04-02T00:53:32.029Z,0.00
2023-04-02T00:54:32.010Z,0.00
2023-04-02T00:55:32.040Z,0.00
2023-04-02T00:56:32.022Z,0.00
2023-04-02T00:57:32.005Z,0.00
2023-04-02T00:58:31.992Z,0.00
2023-04-02T00:59:32.009Z,0.00
2023-04-02T01:00:31.966Z,0.00
2023-04-02T01:01:32.024Z,0.00
2023-04-02T01:02:32.224Z,0.00
2023-04-02T01:03:32.102Z,0.00
2023-04-02T01:04:31.937Z,0.00
2023-04-02T01:05:31.998Z,0.00
2023-04-02T01:06:31.939Z,0.00
2023-04-02T01:07:31.924Z,0.00
2023-04-02T01:08:31.921Z,0.00
2023-04-02T01:09:31.900Z,0.00
2023-04-02T01:10:31.900Z,0.00
2023-04-02T01:11:31.903Z,0.00
2023-04-02T01:12:31.860Z,0.00
2023-04-02T01:13:31.852Z,0.00
2023-04-02T01:14:31.871Z,0.00
2023-04-02T01:15:31.899Z,0.00
2023-04-02T01:16:31.894Z,0.00
2023-04-02T01:17:31.891Z,0.00
2023-04-02T01:18:31.829Z,0.00
2023-04-02T01:19:31.838Z,0.00
2023-04-02T01:20:31.801Z,0.00
2023-04-02T01:21:31.789Z,0.00
2023-04-02T01:22:31.831Z,0.00
2023-04-02T01:23:31.778Z,0.00
2023-04-02T01:24:31.784Z,0.00
2023-04-02T01:25:32.507Z,0.00
2023-04-02T01:26:31.818Z,0.00
2023-04-02T01:27:31.751Z,0.00
2023-04-02T01:28:31.790Z,0.00
2023-04-02T01:29:31.765Z,0.00
2023-04-02T01:30:31.743Z,0.00
2023-04-02T01:31:31.808Z,0.00
2023-04-02T01:32:31.790Z,0.00
2023-04-02T01:33:31.725Z,0.00
2023-04-02T01:34:31.701Z,0.00
2023-04-02T01:35:31.716Z,0.00
2023-04-02T01:36:31.774Z,0.00
2023-04-02T01:37:31.720Z,0.00
2023-04-02T01:38:31.713Z,0.00
2023-04-02T01:39:31.673Z,0.00
2023-04-02T01:40:31.674Z,0.00
2023-04-02T01:41:31.654Z,0.00
2023-04-02T01:42:31.679Z,0.00
2023-04-02T01:43:31.639Z,0.00
2023-04-02T01:44:31.642Z,0.00
2023-04-02T01:45:31.628Z,0.00
2023-04-02T01:46:31.651Z,0.00
2023-04-02T01:47:31.692Z,0.00
2023-04-02T01:48:31.603Z,0.00
2023-04-02T01:49:31.590Z,0.00
2023-04-02T01:50:31.735Z,0.00
2023-04-02T01:51:31.580Z,0.00
2023-04-02T01:52:31.596Z,0.00
2023-04-02T01:53:31.558Z,0.00
2023-04-02T01:54:31.584Z,0.00
2023-04-02T01:55:31.609Z,0.00
2023-04-02T01:56:31.543Z,0.00
2023-04-02T01:57:31.666Z,0.00
2023-04-02T01:58:31.681Z,0.00
2023-04-02T01:59:31.520Z,0.00
2023-04-02T02:00:31.530Z,0.00
2023-04-02T02:01:31.537Z,0.00
2023-04-02T02:02:31.615Z,0.00
2023-04-02T02:03:31.480Z,0.00
2023-04-02T02:04:31.484Z,0.00
2023-04-02T02:05:31.496Z,0.00
2023-04-02T02:06:31.503Z,0.00
2023-04-02T02:07:31.478Z,0.00
2023-04-02T02:08:32.490Z,0.00
2023-04-02T02:09:31.455Z,0.00
2023-04-02T02:10:31.449Z,0.00
2023-04-02T02:11:31.441Z,0.00
2023-04-02T02:12:31.468Z,0.00
2023-04-02T02:13:31.408Z,0.00
2023-04-02T02:14:31.417Z,0.00
2023-04-02T02:15:31.416Z,0.00
2023-04-02T02:16:31.399Z,0.00
2023-04-02T02:17:31.455Z,0.00
2023-04-02T02:18:31.374Z,0.00
2023-04-02T02:19:31.372Z,0.00
2023-04-02T02:20:31.385Z,0.00
2023-04-02T02:21:31.385Z,0.00
2023-04-02T02:22:31.378Z,0.00
2023-04-02T02:23:31.341Z,0.00
2023-04-02T02:24:31.347Z,0.00
2023-04-02T02:25:31.327Z,0.00
2023-04-02T02:26:31.317Z,0.00
2023-04-02T02:27:31.344Z,0.00
2023-04-02T02:28:31.323Z,0.00
2023-04-02T02:29:31.310Z,0.00
2023-04-02T02:30:31.306Z,0.00
2023-04-02T02:31:31.296Z,0.00
2023-04-02T02:32:31.322Z,0.00
2023-04-02T02:33:31.243Z,0.00
2023-04-02T02:34:32.257Z,0.00
2023-04-02T02:35:31.262Z,0.00
2023-04-02T02:36:31.289Z,0.00
2023-04-02T02:37:31.277Z,0.00
2023-04-02T02:38:31.222Z,0.00
2023-04-02T02:39:31.233Z,0.00
2023-04-02T02:40:31.242Z,0.00
2023-04-02T02:41:31.203Z,0.00
2023-04-02T02:42:31.269Z,0.00
2023-04-02T02:43:31.202Z,0.00
2023-04-02T02:44:31.224Z,0.00
2023-04-02T02:45:31.173Z,0.00
2023-04-02T02:46:31.184Z,0.00
2023-04-02T02:47:31.215Z,0.00
2023-04-02T02:48:31.134Z,0.00
2023-04-02T02:49:31.156Z,0.00
2023-04-02T02:50:31.172Z,0.00
2023-04-02T02:51:31.125Z,0.00
2023-04-02T02:52:31.154Z,0.00
2023-04-02T02:53:31.122Z,0.00
2023-04-02T02:54:31.109Z,0.00
2023-04-02T02:55:31.114Z,0.00
2023-04-02T02:56:31.095Z,0.00
2023-04-02T02:57:31.188Z,0.00
2023-04-02T02:58:31.133Z,0.00
2023-04-02T02:59:31.095Z,0.00
2023-04-02T03:00:31.071Z,0.00
2023-04-02T03:01:31.097Z,0.00
2023-04-02T03:02:31.115Z,0.00
2023-04-02T03:03:31.155Z,0.00
2023-04-02T03:04:31.039Z,0.00
2023-04-02T03:05:31.043Z,0.00
2023-04-02T03:06:31.022Z,0.00
2023-04-02T03:07:31.059Z,0.00
2023-04-02T03:08:31.007Z,0.00
2023-04-02T03:09:30.991Z,0.00
2023-04-02T03:10:30.994Z,0.00
2023-04-02T03:11:30.978Z,0.00
2023-04-02T03:12:30.993Z,0.00
2023-04-02T03:13:30.964Z,0.00
2023-04-02T03:14:30.982Z,0.00
2023-04-02T03:15:31.001Z,0.00
2023-04-02T03:16:30.962Z,0.00
2023-04-02T03:17:31.003Z,0.00
2023-04-02T03:18:30.930Z,0.00
2023-04-02T03:19:30.921Z,0.00
2023-04-02T03:20:30.921Z,0.00
2023-04-02T03:21:30.901Z,0.00
2023-04-02T03:22:30.920Z,0.00
2023-04-02T03:23:30.887Z,0.00
2023-04-02T03:24:30.894Z,0.00
2023-04-02T03:25:30.866Z,0.00
2023-04-02T03:26:30.862Z,0.00
2023-04-02T03:27:31.915Z,0.00
2023-04-02T03:28:30.889Z,0.00
2023-04-02T03:29:30.845Z,0.00
2023-04-02T03:30:30.844Z,0.00
2023-04-02T03:31:30.855Z,0.00
2023-04-02T03:32:30.916Z,0.00
2023-04-02T03:33:30.832Z,0.00
2023-04-02T03:34:30.828Z,0.00
2023-04-02T03:35:30.803Z,0.00
2023-04-02T03:36:30.791Z,0.00
2023-04-02T03:37:30.805Z,0.00
2023-04-02T03:38:30.811Z,0.00
2023-04-02T03:39:30.785Z,0.00
2023-04-02T03:40:30.763Z,0.00
2023-04-02T03:41:30.768Z,0.00
2023-04-02T03:42:31.755Z,0.00
2023-04-02T03:43:30.766Z,0.00
2023-04-02T03:44:30.789Z,0.00
2023-04-02T03:45:30.729Z,0.00
2023-04-02T03:46:30.743Z,0.00
2023-04-02T03:47:30.758Z,0.00
2023-04-02T03:48:30.752Z,0.00
2023-04-02T03:49:30.704Z,0.00
2023-04-02T03:50:30.690Z,0.00
2023-04-02T03:51:30.717Z,0.00
2023-04-02T03:52:30.680Z,0.00
2023-04-02T03:53:30.697Z,0.00
2023-04-02T03:54:30.654Z,0.00
2023-04-02T03:55:30.645Z,0.00
2023-04-02T03:56:30.650Z,0.00
2023-04-02T03:57:30.683Z,0.00
2023-04-02T03:58:30.654Z,0.00
2023-04-02T03:59:30.620Z,0.00
2023-04-02T04:00:30.642Z,0.00
2023-04-02T04:01:30.639Z,0.00
2023-04-02T04:02:30.663Z,0.00
2023-04-02T04:03:30.615Z,0.00
2023-04-02T04:04:30.754Z,0.00
2023-04-02T04:05:30.572Z,0.00
2023-04-02T04:06:30.597Z,0.00
2023-04-02T04:07:30.574Z,0.00
2023-04-02T04:08:30.593Z,0.00
2023-04-02T04:09:30.550Z,0.00
2023-04-02T04:10:30.546Z,0.00
2023-04-02T04:11:31.529Z,0.00
2023-04-02T04:12:30.534Z,0.00
2023-04-02T04:13:30.542Z,0.00
2023-04-02T04:14:30.501Z,0.00
2023-04-02T04:15:30.510Z,0.00
2023-04-02T04:16:30.530Z,0.00
2023-04-02T04:17:30.534Z,0.00
2023-04-02T04:18:30.485Z,0.00
2023-04-02T04:19:30.457Z,0.00
2023-04-02T04:20:30.460Z,0.00
2023-04-02T04:21:30.469Z,0.00
2023-04-02T04:22:30.547Z,0.00
2023-04-02T04:23:30.516Z,0.00
2023-04-02T04:24:30.424Z,0.00
2023-04-02T04:25:30.491Z,0.00
2023-04-02T04:26:30.400Z,0.00
2023-04-02T04:27:30.431Z,0.00
2023-04-02T04:28:30.435Z,0.00
2023-04-02T04:29:30.385Z,0.00
2023-04-02T04:30:30.401Z,0.00
2023-04-02T04:31:30.400Z,0.00
2023-04-02T04:32:30.369Z,0.00
2023-04-02T04:33:30.477Z,0.00
2023-04-02T04:34:30.367Z,0.00
2023-04-02T04:35:30.405Z,0.00
2023-04-02T04:36:30.329Z,0.00
2023-04-02T04:38:04.530Z,0.00
2023-04-02T04:38:30.314Z,4.00
2023-04-02T04:39:30.273Z,4.00
2023-04-02T04:40:30.265Z,0.00
2023-04-02T04:41:30.257Z,0.00
2023-04-02T04:42:30.251Z,0.00
2023-04-02T04:43:30.279Z,0.00
2023-04-02T04:44:30.274Z,0.00
2023-04-02T04:45:31.246Z,0.00
2023-04-02T04:46:30.353Z,4.00
2023-04-02T04:47:30.238Z,4.00
2023-04-02T04:48:30.249Z,4.00
2023-04-02T04:49:30.194Z,0.00
2023-04-02T04:50:30.198Z,0.00
2023-04-02T04:51:30.194Z,4.00
2023-04-02T04:52:30.174Z,4.00
2023-04-02T04:53:30.193Z,4.00
2023-04-02T04:54:30.210Z,4.00
2023-04-02T04:55:30.158Z,8.00
2023-04-02T04:56:30.150Z,4.00
2023-04-02T04:57:30.183Z,8.00
2023-04-02T04:58:30.162Z,8.00
2023-04-02T04:59:30.131Z,8.00
2023-04-02T05:00:30.121Z,12.00
2023-04-02T05:01:30.133Z,12.00
2023-04-02T05:02:30.123Z,12.00
2023-04-02T05:03:30.110Z,12.00
2023-04-02T05:04:30.273Z,12.00
2023-04-02T05:05:30.085Z,12.00
2023-04-02T05:06:30.077Z,12.00
2023-04-02T05:07:30.067Z,12.00
2023-04-02T05:08:30.061Z,12.00
2023-04-02T05:09:30.074Z,12.00
2023-04-02T05:10:30.042Z,12.00
2023-04-02T05:11:30.029Z,16.00
2023-04-02T05:12:30.025Z,16.00
2023-04-02T05:13:30.022Z,16.00
2023-04-02T05:14:30.087Z,16.00
2023-04-02T05:15:30.007Z,20.00
2023-04-02T05:16:30.078Z,20.00
2023-04-02T05:17:30.017Z,24.00
2023-04-02T05:18:29.985Z,24.00
2023-04-02T05:19:30.002Z,28.00
2023-04-02T05:20:29.974Z,28.00
2023-04-02T05:21:29.959Z,28.00
2023-04-02T05:22:29.947Z,28.00
2023-04-02T05:23:29.949Z,28.00
2023-04-02T05:24:29.986Z,32.00
2023-04-02T05:25:29.931Z,36.00
2023-04-02T05:26:29.938Z,40.00
2023-04-02T05:27:29.925Z,44.00
2023-04-02T05:28:29.906Z,44.00
2023-04-02T05:29:29.927Z,44.00
2023-04-02T05:30:29.894Z,44.00
2023-04-02T05:31:29.907Z,44.00
2023-04-02T05:32:29.901Z,52.00
2023-04-02T05:33:29.885Z,52.00
2023-04-02T05:34:29.901Z,56.00
2023-04-02T05:35:29.864Z,60.00
2023-04-02T05:36:29.859Z,64.00
2023-04-02T05:37:29.837Z,64.00
2023-04-02T05:38:29.833Z,68.00
2023-04-02T05:39:29.961Z,76.00
2023-04-02T05:40:29.813Z,76.00
2023-04-02T05:41:29.806Z,80.00
2023-04-02T05:42:29.798Z,84.00
2023-04-02T05:43:29.789Z,80.00
2023-04-02T05:44:29.823Z,80.00
2023-04-02T05:45:29.783Z,84.00
2023-04-02T05:46:29.871Z,88.00
2023-04-02T05:47:29.773Z,88.00
2023-04-02T05:48:29.754Z,92.00
2023-04-02T05:49:29.810Z,92.00
2023-04-02T05:50:29.724Z,92.00
2023-04-02T05:51:30.730Z,92.00
2023-04-02T05:52:29.727Z,88.00
2023-04-02T05:53:29.720Z,84.00
2023-04-02T05:54:29.744Z,88.00
2023-04-02T05:55:29.715Z,84.00
2023-04-02T05:56:29.708Z,88.00
2023-04-02T05:57:41.721Z,92.00
2023-04-02T05:58:36.348Z,92.00
2023-04-02T05:59:31.699Z,104.00
2023-04-02T06:00:29.718Z,108.00
2023-04-02T06:01:29.679Z,112.00
2023-04-02T06:02:29.956Z,120.00
2023-04-02T06:03:29.753Z,120.00
2023-04-02T06:04:29.668Z,120.00
2023-04-02T06:05:29.639Z,120.00
2023-04-02T06:06:29.630Z,120.00
2023-04-02T06:07:29.637Z,124.00
2023-04-02T06:08:29.617Z,124.00
2023-04-02T06:09:29.624Z,124.00
2023-04-02T06:10:29.691Z,128.00
2023-04-02T06:11:29.592Z,124.00
2023-04-02T06:12:29.577Z,124.00
2023-04-02T06:13:29.569Z,124.00
2023-04-02T06:14:29.598Z,124.00
2023-04-02T06:15:29.596Z,132.00
2023-04-02T06:16:29.565Z,144.00
2023-04-02T06:17:29.565Z,164.00
2023-04-02T06:18:29.530Z,164.00
2023-04-02T06:19:29.542Z,164.00
2023-04-02T06:20:29.522Z,168.00
2023-04-02T06:21:29.518Z,168.00
2023-04-02T06:22:29.500Z,168.00
2023-04-02T06:23:29.491Z,168.00
2023-04-02T06:24:29.489Z,180.00
2023-04-02T06:25:29.704Z,188.00
2023-04-02T06:26:29.473Z,196.00
2023-04-02T06:27:29.459Z,200.00
2023-04-02T06:28:29.447Z,204.00
2023-04-02T06:29:29.589Z,212.00
2023-04-02T06:30:29.477Z,224.00
2023-04-02T06:31:29.445Z,232.00
2023-04-02T06:32:29.466Z,236.00
2023-04-02T06:33:29.411Z,244.00
2023-04-02T06:34:29.404Z,248.00
2023-04-02T06:35:29.446Z,256.00
2023-04-02T06:36:29.392Z,260.00
2023-04-02T06:37:29.376Z,264.00
2023-04-02T06:38:29.376Z,280.00
2023-04-02T06:39:29.429Z,292.00
2023-04-02T06:40:29.390Z,308.00
2023-04-02T06:41:29.373Z,316.00
2023-04-02T06:42:29.356Z,332.00
2023-04-02T06:43:29.340Z,344.00
2023-04-02T06:44:29.328Z,356.00
2023-04-02T06:45:29.344Z,372.00
2023-04-02T06:46:29.417Z,380.00
2023-04-02T06:47:29.329Z,384.00
2023-04-02T06:48:29.305Z,388.00
2023-04-02T06:49:29.300Z,384.00
2023-04-02T06:50:29.313Z,384.00
2023-04-02T06:51:29.315Z,396.00
2023-04-02T06:52:29.299Z,416.00
2023-04-02T06:53:29.274Z,424.00
2023-04-02T06:54:29.271Z,428.00
2023-04-02T06:55:29.281Z,432.00
2023-04-02T06:56:29.243Z,428.00
2023-04-02T06:57:29.277Z,428.00
2023-04-02T06:58:29.235Z,416.00
2023-04-02T06:59:29.224Z,432.00
2023-04-02T07:00:29.270Z,432.00
2023-04-02T07:01:29.216Z,432.00
2023-04-02T07:02:29.225Z,420.00
2023-04-02T07:03:29.188Z,436.00
2023-04-02T07:04:29.196Z,436.00
2023-04-02T07:05:29.212Z,448.00
2023-04-02T07:06:29.170Z,448.00
2023-04-02T07:07:29.151Z,472.00
2023-04-02T07:08:29.205Z,476.00
2023-04-02T07:09:29.132Z,480.00
2023-04-02T07:10:29.165Z,520.00
2023-04-02T07:11:30.125Z,500.00
2023-04-02T07:12:29.114Z,468.00
2023-04-02T07:13:29.106Z,416.00
2023-04-02T07:14:29.105Z,372.00
2023-04-02T07:15:29.124Z,348.00
2023-04-02T07:16:29.154Z,352.00
2023-04-02T07:17:29.084Z,356.00
2023-04-02T07:18:30.075Z,356.00
2023-04-02T07:19:29.059Z,340.00
2023-04-02T07:20:29.078Z,324.00
2023-04-02T07:21:29.050Z,328.00
2023-04-02T07:22:29.039Z,324.00
2023-04-02T07:23:29.048Z,324.00
2023-04-02T07:24:29.025Z,340.00
2023-04-02T07:25:29.049Z,332.00
2023-04-02T07:26:28.990Z,308.00
2023-04-02T07:27:28.995Z,276.00
2023-04-02T07:28:28.982Z,264.00
2023-04-02T07:29:28.980Z,248.00
2023-04-02T07:30:29.068Z,248.00
2023-04-02T07:31:29.013Z,244.00
2023-04-02T07:32:28.995Z,244.00
2023-04-02T07:33:28.948Z,256.00
2023-04-02T07:34:28.935Z,272.00
2023-04-02T07:35:28.931Z,292.00
2023-04-02T07:36:28.956Z,304.00
2023-04-02T07:37:28.912Z,308.00
2023-04-02T07:38:28.908Z,288.00
2023-04-02T07:39:28.899Z,288.00
2023-04-02T07:40:28.905Z,284.00
2023-04-02T07:41:28.905Z,284.00
2023-04-02T07:42:29.883Z,272.00
2023-04-02T07:43:28.879Z,264.00
2023-04-02T07:44:28.872Z,260.00
2023-04-02T07:45:28.866Z,264.00
2023-04-02T07:46:28.881Z,268.00
2023-04-02T07:47:28.902Z,276.00
2023-04-02T07:48:28.840Z,276.00
2023-04-02T07:49:28.831Z,276.00
2023-04-02T07:50:28.876Z,280.00
2023-04-02T07:51:28.836Z,288.00
2023-04-02T07:52:28.804Z,304.00
2023-04-02T07:53:28.822Z,312.00
2023-04-02T07:54:28.794Z,324.00
2023-04-02T07:55:28.811Z,320.00
2023-04-02T07:56:28.799Z,312.00
2023-04-02T07:57:28.816Z,300.00
2023-04-02T07:58:28.775Z,304.00
2023-04-02T07:59:28.752Z,308.00
2023-04-02T08:00:28.899Z,304.00
2023-04-02T08:01:28.818Z,300.00
2023-04-02T08:02:28.866Z,308.00
2023-04-02T08:03:29.022Z,308.00
2023-04-02T08:04:28.771Z,316.00
2023-04-02T08:05:28.703Z,332.00
2023-04-02T08:06:28.726Z,344.00
2023-04-02T08:07:28.692Z,356.00
2023-04-02T08:08:28.688Z,364.00
2023-04-02T08:09:28.671Z,368.00
2023-04-02T08:10:28.667Z,368.00
2023-04-02T08:11:31.557Z,360.00
2023-04-02T08:12:28.657Z,360.00
2023-04-02T08:13:28.644Z,344.00
2023-04-02T08:14:28.644Z,340.00
2023-04-02T08:15:28.633Z,332.00
2023-04-02T08:16:28.662Z,336.00
2023-04-02T08:17:28.664Z,340.00
2023-04-02T08:18:28.611Z,348.00
2023-04-02T08:19:28.610Z,336.00
2023-04-02T08:20:28.603Z,336.00
2023-04-02T08:21:28.612Z,332.00
2023-04-02T08:22:28.592Z,348.00
2023-04-02T08:23:28.615Z,372.00
2023-04-02T08:24:28.566Z,388.00
2023-04-02T08:25:28.563Z,420.00
2023-04-02T08:26:28.581Z,456.00
2023-04-02T08:27:28.562Z,464.00
2023-04-02T08:28:28.539Z,460.00
2023-04-02T08:29:28.540Z,444.00
2023-04-02T08:30:28.543Z,452.00
2023-04-02T08:31:28.564Z,452.00
2023-04-02T08:32:28.555Z,452.00
2023-04-02T08:33:28.573Z,456.00
2023-04-02T08:34:28.494Z,444.00
2023-04-02T08:35:28.486Z,436.00
2023-04-02T08:36:28.670Z,424.00
2023-04-02T08:37:28.474Z,412.00
2023-04-02T08:38:28.460Z,424.00
2023-04-02T08:39:29.481Z,424.00
2023-04-02T08:40:28.448Z,412.00
2023-04-02T08:41:28.476Z,404.00
2023-04-02T08:42:28.440Z,424.00
2023-04-02T08:43:28.438Z,424.00
2023-04-02T08:44:28.439Z,416.00
2023-04-02T08:45:28.406Z,424.00
2023-04-02T08:46:28.452Z,424.00
2023-04-02T08:47:28.429Z,428.00
2023-04-02T08:48:28.390Z,436.00
2023-04-02T08:49:28.387Z,444.00
2023-04-02T08:50:28.370Z,460.00
2023-04-02T08:51:28.401Z,484.00
2023-04-02T08:52:28.364Z,508.00
2023-04-02T08:53:28.351Z,532.00
2023-04-02T08:54:28.351Z,536.00
2023-04-02T08:55:28.339Z,532.00
2023-04-02T08:56:28.361Z,536.00
2023-04-02T08:57:28.383Z,536.00
2023-04-02T08:58:28.316Z,536.00
2023-04-02T08:59:28.314Z,536.00
2023-04-02T09:00:28.300Z,540.00
2023-04-02T09:01:28.348Z,540.00
2023-04-02T09:02:28.378Z,540.00
2023-04-02T09:03:28.323Z,568.00
2023-04-02T09:04:28.301Z,604.00
2023-04-02T09:05:28.261Z,628.00
2023-04-02T09:06:28.280Z,644.00
2023-04-02T09:07:28.242Z,660.00
2023-04-02T09:08:28.244Z,672.00
2023-04-02T09:09:28.256Z,696.00
2023-04-02T09:10:28.221Z,748.00
2023-04-02T09:11:28.218Z,788.00
2023-04-02T09:12:28.253Z,828.00
2023-04-02T09:13:28.202Z,852.00
2023-04-02T09:14:28.203Z,872.00
2023-04-02T09:15:28.195Z,900.00
2023-04-02T09:16:28.228Z,944.00
2023-04-02T09:17:28.524Z,964.00
2023-04-02T09:18:28.239Z,960.00
2023-04-02T09:19:28.160Z,988.00
2023-04-02T09:20:28.150Z,1048.00
2023-04-02T09:21:28.141Z,1036.00
2023-04-02T09:22:28.154Z,940.00
2023-04-02T09:23:28.128Z,868.00
2023-04-02T09:24:28.117Z,812.00
2023-04-02T09:25:28.135Z,784.00
2023-04-02T09:26:28.155Z,760.00
2023-04-02T09:27:28.131Z,780.00
2023-04-02T09:28:28.087Z,788.00
2023-04-02T09:29:28.075Z,780.00
2023-04-02T09:30:29.067Z,788.00
2023-04-02T09:31:28.104Z,852.00
2023-04-02T09:32:28.163Z,972.00
2023-04-02T09:33:28.057Z,1020.00
2023-04-02T09:34:28.044Z,1020.00
2023-04-02T09:35:28.036Z,944.00
2023-04-02T09:36:28.034Z,840.00
2023-04-02T09:37:29.052Z,808.00
2023-04-02T09:38:28.020Z,788.00
2023-04-02T09:39:28.014Z,772.00
2023-04-02T09:40:27.995Z,740.00
2023-04-02T09:41:27.999Z,736.00
2023-04-02T09:42:28.011Z,756.00
2023-04-02T09:43:27.977Z,792.00
2023-04-02T09:44:28.025Z,816.00
2023-04-02T09:45:27.960Z,824.00
2023-04-02T09:46:27.980Z,828.00
2023-04-02T09:47:28.030Z,812.00
2023-04-02T09:48:27.944Z,796.00
2023-04-02T09:49:27.926Z,788.00
2023-04-02T09:50:27.916Z,748.00
2023-04-02T09:51:27.929Z,708.00
2023-04-02T09:52:27.935Z,684.00
2023-04-02T09:53:27.933Z,700.00
2023-04-02T09:54:27.879Z,684.00
2023-04-02T09:55:27.873Z,700.00
2023-04-02T09:56:27.873Z,684.00
2023-04-02T09:57:27.918Z,648.00
2023-04-02T09:58:27.852Z,624.00
2023-04-02T09:59:27.861Z,612.00
2023-04-02T10:00:31.945Z,572.00
2023-04-02T10:01:28.939Z,544.00
2023-04-02T10:02:27.880Z,532.00
2023-04-02T10:03:27.841Z,524.00
2023-04-02T10:04:27.821Z,512.00
2023-04-02T10:05:40.003Z,508.00
2023-04-02T10:06:29.804Z,508.00
2023-04-02T10:07:27.808Z,508.00
2023-04-02T10:08:27.782Z,492.00
2023-04-02T10:09:27.753Z,488.00
2023-04-02T10:10:27.756Z,476.00
2023-04-02T10:11:36.578Z,476.00
2023-04-02T10:12:29.763Z,468.00
2023-04-02T10:13:27.729Z,464.00
2023-04-02T10:14:27.739Z,468.00
2023-04-02T10:15:27.742Z,468.00
2023-04-02T10:16:27.774Z,476.00
2023-04-02T10:17:27.751Z,480.00
2023-04-02T10:18:27.696Z,488.00
2023-04-02T10:19:27.682Z,488.00
2023-04-02T10:20:28.483Z,484.00
2023-04-02T10:21:27.673Z,500.00
2023-04-02T10:22:27.706Z,500.00
2023-04-02T10:23:27.666Z,508.00
2023-04-02T10:24:27.652Z,504.00
2023-04-02T10:25:27.636Z,500.00
2023-04-02T10:26:27.640Z,512.00
2023-04-02T10:27:27.635Z,536.00
2023-04-02T10:28:27.653Z,552.00
2023-04-02T10:29:27.610Z,544.00
2023-04-02T10:30:27.613Z,528.00
2023-04-02T10:31:27.641Z,524.00
2023-04-02T10:32:27.634Z,528.00
2023-04-02T10:33:27.607Z,552.00
2023-04-02T10:34:27.590Z,548.00
2023-04-02T10:35:27.626Z,560.00
2023-04-02T10:36:27.566Z,608.00
2023-04-02T10:37:37.155Z,660.00
2023-04-02T10:38:27.544Z,692.00
2023-04-02T10:39:27.541Z,700.00
2023-04-02T10:40:27.538Z,700.00
2023-04-02T10:41:27.548Z,700.00
2023-04-02T10:42:27.519Z,732.00
2023-04-02T10:43:27.534Z,740.00
2023-04-02T10:44:27.503Z,784.00
2023-04-02T10:45:27.490Z,800.00
2023-04-02T10:46:27.496Z,764.00
2023-04-02T10:47:27.534Z,724.00
2023-04-02T10:48:27.502Z,688.00
2023-04-02T10:49:27.520Z,668.00
2023-04-02T10:50:27.460Z,656.00
2023-04-02T10:51:27.504Z,636.00
2023-04-02T10:52:27.437Z,620.00
2023-04-02T10:53:27.455Z,608.00
2023-04-02T10:54:27.444Z,596.00
2023-04-02T10:55:27.417Z,584.00
2023-04-02T10:56:28.527Z,580.00
2023-04-02T10:57:27.433Z,564.00
2023-04-02T10:58:27.425Z,560.00
2023-04-02T10:59:27.379Z,540.00
2023-04-02T11:00:28.386Z,528.00
2023-04-02T11:01:27.381Z,516.00
2023-04-02T11:02:27.472Z,500.00
2023-04-02T11:03:27.475Z,488.00
2023-04-02T11:04:27.350Z,472.00
2023-04-02T11:05:27.444Z,464.00
2023-04-02T11:06:28.463Z,452.00
2023-04-02T11:07:27.358Z,448.00
2023-04-02T11:08:27.346Z,440.00
2023-04-02T11:09:27.317Z,436.00
2023-04-02T11:10:27.325Z,436.00
2023-04-02T11:11:27.316Z,436.00
2023-04-02T11:12:27.300Z,444.00
2023-04-02T11:13:27.318Z,448.00
2023-04-02T11:14:27.275Z,444.00
2023-04-02T11:15:27.272Z,444.00
2023-04-02T11:16:27.301Z,448.00
2023-04-02T11:17:27.308Z,452.00
2023-04-02T11:18:27.274Z,460.00
2023-04-02T11:19:27.232Z,460.00
2023-04-02T11:20:27.228Z,456.00
2023-04-02T11:21:27.227Z,456.00
2023-04-02T11:22:27.219Z,464.00
2023-04-02T11:23:27.266Z,472.00
2023-04-02T11:24:27.229Z,492.00
2023-04-02T11:25:27.204Z,524.00
2023-04-02T11:26:27.191Z,552.00
2023-04-02T11:27:27.198Z,584.00
2023-04-02T11:28:27.199Z,608.00
2023-04-02T11:29:27.174Z,600.00
2023-04-02T11:30:27.157Z,596.00
2023-04-02T11:31:27.246Z,568.00
2023-04-02T11:32:27.245Z,540.00
2023-04-02T11:33:36.540Z,524.00
2023-04-02T11:34:28.122Z,524.00
2023-04-02T11:35:27.133Z,532.00
2023-04-02T11:36:27.123Z,548.00
2023-04-02T11:37:27.105Z,560.00
2023-04-02T11:38:27.117Z,584.00
2023-04-02T11:39:27.088Z,592.00
2023-04-02T11:40:27.084Z,608.00
2023-04-02T11:41:27.069Z,620.00
2023-04-02T11:42:27.079Z,648.00
2023-04-02T11:43:27.088Z,676.00
2023-04-02T11:44:27.069Z,684.00
2023-04-02T11:45:27.063Z,652.00
2023-04-02T11:46:27.076Z,612.00
2023-04-02T11:47:27.068Z,580.00
2023-04-02T11:48:27.058Z,560.00
2023-04-02T11:49:27.021Z,564.00
2023-04-02T11:50:27.050Z,556.00
2023-04-02T11:51:27.011Z,548.00
2023-04-02T11:52:27.025Z,540.00
2023-04-02T11:53:27.012Z,528.00
2023-04-02T11:54:26.990Z,524.00
2023-04-02T11:55:26.970Z,512.00
2023-04-02T11:56:26.962Z,504.00
2023-04-02T11:57:26.988Z,492.00
2023-04-02T11:58:26.978Z,496.00
2023-04-02T11:59:26.928Z,484.00
2023-04-02T12:00:26.933Z,484.00
2023-04-02T12:01:26.923Z,480.00
2023-04-02T12:02:26.963Z,480.00
2023-04-02T12:03:26.905Z,492.00
2023-04-02T12:04:26.932Z,504.00
2023-04-02T12:05:26.985Z,520.00
2023-04-02T12:06:26.889Z,544.00
2023-04-02T12:07:26.895Z,576.00
2023-04-02T12:08:26.881Z,608.00
2023-04-02T12:09:26.898Z,640.00
2023-04-02T12:10:26.853Z,660.00
2023-04-02T12:11:26.850Z,660.00
2023-04-02T12:12:26.842Z,640.00
2023-04-02T12:13:26.828Z,636.00
2023-04-02T12:14:27.885Z,628.00
2023-04-02T12:15:26.825Z,632.00
2023-04-02T12:16:26.833Z,628.00
2023-04-02T12:17:26.822Z,632.00
2023-04-02T12:18:26.813Z,640.00
2023-04-02T12:19:26.876Z,648.00
2023-04-02T12:20:26.810Z,648.00
2023-04-02T12:21:26.881Z,640.00
2023-04-02T12:22:26.764Z,652.00
2023-04-02T12:23:26.787Z,676.00
2023-04-02T12:24:26.859Z,704.00
2023-04-02T12:25:26.774Z,740.00
2023-04-02T12:26:26.797Z,764.00
2023-04-02T12:27:26.734Z,792.00
2023-04-02T12:28:26.726Z,808.00
2023-04-02T12:29:26.802Z,808.00
2023-04-02T12:30:26.718Z,808.00
2023-04-02T12:31:26.885Z,800.00
2023-04-02T12:32:28.485Z,804.00
2023-04-02T12:33:26.681Z,804.00
2023-04-02T12:34:26.739Z,800.00
2023-04-02T12:35:26.670Z,784.00
2023-04-02T12:36:26.668Z,776.00
2023-04-02T12:37:26.661Z,772.00
2023-04-02T12:38:26.659Z,760.00
2023-04-02T12:39:28.358Z,768.00
2023-04-02T12:40:27.630Z,780.00
2023-04-02T12:41:26.633Z,800.00
2023-04-02T12:42:26.636Z,828.00
2023-04-02T12:43:26.622Z,848.00
2023-04-02T12:44:26.635Z,856.00
2023-04-02T12:45:29.155Z,864.00
2023-04-02T12:46:28.130Z,868.00
2023-04-02T12:47:26.644Z,896.00
2023-04-02T12:48:26.576Z,932.00